Aérodrome :
LOGIN :

S'inscrire | Disclaimer

   EN    FR    IT 

 










Légende :    VFR   VFR Marginal   IFR   IFR Intensif   IFR Très Intensif
Visi : 
Plafond : 
>= 8 km
>= 3000ft
5 à 8 km
1000 à 3000 ft
1500m à 5 km
500 à 1000 ft
800 à 1500m
200 à 500 ft
< 800m
< 200 ft
Symboles :   Orages  Brouillard  Fortes neiges  Fortes précipitations  Vent > 20 kt
SIGMETs :   Divers  Orages  Givrage  Turbulence  Onde Orograph.  Cendres Volcan.






- Altitude de l'aérodrome : 291 ft
- Code IATA : ORY


LFPO - Paris-Orly

DERNIER METAR :
  • 140030Z 18011KT 8000 -RA BKN026 06/04 Q0994 TEMPO 16020G30KT 3000 RA BKN012 SCT020CB

METARs EXPIRÉS :
  • 140000Z 16011KT 9999 -RA BKN036 06/03 Q0995 TEMPO 16020G30KT 3000 RA BKN012 SCT020CB
  • 132330Z 16013KT 140V200 9999 BKN042 06/03 Q0995 TEMPO 16020G30KT 3000 RA BKN012 SCT020CB
  • 132300Z 17012KT 140V200 9999 BKN043 SCT086 BKN130 06/03 Q0996 NOSIG
  • 132230Z 17012KT 150V210 9999 SCT043 BKN200 06/03 Q0996 NOSIG
  • 132200Z 18012KT 9999 FEW043 BKN200 06/04 Q0997 NOSIG

TAF TAF LFPO
Valide du 14 à 00h jusqu'au 15 à 06h UTC


132300Z 1400/1506 17010KT 9999 BKN030
TEMPO 1400/1403 16020G30KT 3000 RA BKN012 SCT020CB
BECMG 1403/1405 21004KT
BECMG 1410/1412 SCT025
BECMG 1416/1418 03003KT BKN030
PROB30
TEMPO 1419/1506 -RA BKN012
ATIS : +33 1 49 75 65 80



MET'MAP, la Météo Aéronautique d'un coup d'oeil ! - Copyright ORBIFLY Décembre 2007 - Disclaimer

ORBIFLY MET'MAP TEAM :

Programmation & Développement : Alexandra Zaïnal
Conception & Développement : Baudouin d'Aumeries
Co-Programmation & Développement : Marc-Olivier Méhu
Soutien technique & logistique : Manuel Goepfert

Contact : metmap@orbifly.com




SOURCES & CREDITS :

   NOAA